Time;durP1;ratioP1;P1;durP2;ratioP2;P2;SDS_P1;SDS_P2;PMS_P1;PMS_P2;Temp;Humidity;BMP_temperature;BMP_pressure;BME280_temperature;BME280_humidity;BME280_pressure;Samples;Min_cycle;Max_cycle;Signal;HPM_P1;HPM_P2
2021/12/13 00:00:22;;;;;;;33.50;19.75;;;10.60;99.90;;;;;;5076795;28;20469;-80
2021/12/13 00:02:55;;;;;;;30.33;19.13;;;10.60;99.90;;;;;;5076491;28;20055;-77
2021/12/13 00:05:24;;;;;;;28.42;18.80;;;10.50;99.90;;;;;;5076608;28;20027;-79
2021/12/13 00:08:00;;;;;;;29.77;19.20;;;10.60;99.90;;;;;;5076123;28;20029;-78
2021/12/13 00:10:36;;;;;;;28.75;19.45;;;10.50;99.90;;;;;;5055986;28;20039;-80
2021/12/13 00:13:08;;;;;;;25.33;18.90;;;10.60;99.90;;;;;;5056416;28;20381;-78
2021/12/13 00:15:42;;;;;;;27.08;18.83;;;10.70;99.90;;;;;;5054422;28;20519;-78
2021/12/13 00:18:13;;;;;;;26.67;18.90;;;10.60;99.90;;;;;;5056385;28;20064;-79
2021/12/13 00:20:45;;;;;;;29.15;19.77;;;10.70;99.90;;;;;;5055761;28;20037;-80
2021/12/13 00:23:11;;;;;;;;;;;10.60;99.90;;;;;;5056471;28;20045;-78
2021/12/13 00:25:41;;;;;;;31.52;19.73;;;10.50;99.90;;;;;;5062699;28;19957;-80
2021/12/13 00:28:13;;;;;;;28.75;21.40;;;10.50;99.90;;;;;;5075014;28;20090;-80
2021/12/13 00:30:56;;;;;;;27.05;21.13;;;10.50;99.90;;;;;;5076196;28;20036;-80
2021/12/13 00:33:34;;;;;;;35.60;21.50;;;10.50;99.90;;;;;;5075889;28;20020;-78
2021/12/13 00:36:23;;;;;;;29.65;20.67;;;10.50;99.90;;;;;;5074725;28;20487;-80
2021/12/13 00:38:54;;;;;;;32.25;20.33;;;10.50;99.90;;;;;;5075458;28;20044;-78
2021/12/13 00:41:26;;;;;;;28.45;20.83;;;10.50;99.90;;;;;;5075883;28;20051;-80
2021/12/13 00:43:57;;;;;;;27.52;20.50;;;10.50;99.90;;;;;;5075838;28;20044;-77
2021/12/13 00:46:25;;;;;;;30.95;20.70;;;10.50;99.90;;;;;;5075709;28;20108;-80
2021/12/13 00:48:54;;;;;;;29.10;20.40;;;10.50;99.90;;;;;;5075759;28;20051;-80
2021/12/13 00:51:35;;;;;;;27.73;20.20;;;10.50;99.90;;;;;;5075762;28;20040;-78
2021/12/13 00:54:16;;;;;;;33.13;21.13;;;10.40;99.90;;;;;;5074299;28;20036;-78
2021/12/13 00:56:42;;;;;;;30.55;20.58;;;10.50;99.90;;;;;;5075501;28;20546;-80
2021/12/13 00:59:09;;;;;;;28.27;20.63;;;10.50;99.90;;;;;;5074349;28;20021;-80
2021/12/13 01:01:36;;;;;;;40.33;22.25;;;10.50;99.90;;;;;;5074325;28;20044;-78
2021/12/13 01:04:07;;;;;;;27.85;18.95;;;10.60;99.90;;;;;;5075476;28;20040;-79
2021/12/13 01:06:55;;;;;;;29.00;19.73;;;10.50;99.90;;;;;;5073941;28;20043;-77
2021/12/13 01:09:58;;;;;;;29.92;20.23;;;10.50;99.90;;;;;;5062383;28;20068;-76
2021/12/13 01:12:25;;;;;;;31.65;20.77;;;10.50;99.90;;;;;;5055434;28;20020;-78
2021/12/13 01:15:05;;;;;;;29.38;19.75;;;10.40;99.90;;;;;;5054819;28;20555;-78
2021/12/13 01:17:54;;;;;;;29.10;20.38;;;10.50;99.90;;;;;;5054950;28;20555;-78
2021/12/13 01:20:32;;;;;;;27.75;19.98;;;10.50;99.90;;;;;;5055094;28;20033;-80
2021/12/13 01:23:05;;;;;;;27.90;20.40;;;10.50;99.90;;;;;;5054881;28;20037;-78
2021/12/13 01:28:14;;;;;;;26.55;20.23;;;10.50;99.90;;;;;;5074845;28;20052;-78
2021/12/13 01:30:48;;;;;;;31.17;21.17;;;10.40;99.90;;;;;;5075070;28;20036;-78
2021/12/13 01:33:15;;;;;;;30.50;22.60;;;10.40;99.90;;;;;;5074886;28;20037;-79
2021/12/13 01:35:44;;;;;;;30.27;21.77;;;10.60;99.90;;;;;;5074779;28;20048;-78
2021/12/13 01:38:33;;;;;;;37.78;21.88;;;10.50;99.90;;;;;;5074853;28;20562;-78
2021/12/13 01:41:02;;;;;;;33.03;22.80;;;10.50;99.90;;;;;;5066612;28;20033;-78
2021/12/13 01:43:31;;;;;;;29.40;22.63;;;10.50;99.90;;;;;;5054803;28;20044;-79
2021/12/13 01:45:58;;;;;;;30.90;23.58;;;10.40;99.90;;;;;;5053322;28;20083;-78
2021/12/13 01:48:32;;;;;;;34.88;24.27;;;10.40;99.90;;;;;;5054570;28;20527;-73
2021/12/13 01:51:07;;;;;;;34.13;24.40;;;10.40;99.90;;;;;;5053214;28;20032;-78
2021/12/13 01:53:57;;;;;;;33.45;24.35;;;10.50;99.90;;;;;;5054505;28;20025;-79
2021/12/13 01:56:46;;;;;;;31.00;23.65;;;10.30;99.90;;;;;;5054525;28;20086;-76
2021/12/13 01:59:44;;;;;;;41.78;25.63;;;10.50;99.90;;;;;;5054214;28;20513;-78
2021/12/13 02:02:18;;;;;;;36.78;25.85;;;10.40;99.90;;;;;;5053379;28;20041;-80
2021/12/13 02:04:53;;;;;;;39.90;26.40;;;10.40;99.90;;;;;;5053834;28;20044;-79
2021/12/13 02:07:20;;;;;;;38.22;26.92;;;10.40;99.90;;;;;;5054387;28;20029;-81
2021/12/13 02:09:46;;;;;;;42.47;28.20;;;10.40;99.90;;;;;;5070296;28;20044;-81
2021/12/13 02:12:17;;;;;;;42.30;29.15;;;10.40;99.90;;;;;;5074216;28;20032;-79
2021/12/13 02:16:55;;;;;;;31.08;21.55;;;10.40;99.90;;;;;;5072869;28;20032;-80
2021/12/13 02:17:38;;;;;;;39.88;27.95;;;10.40;99.90;;;;;;5073941;28;20039;-81
2021/12/13 02:20:09;;;;;;;40.35;28.85;;;10.50;99.90;;;;;;5073555;28;20039;-79
2021/12/13 02:22:41;;;;;;;46.63;30.67;;;10.40;99.90;;;;;;5073754;28;20037;-81
2021/12/13 02:25:37;;;;;;;47.80;29.25;;;10.40;99.90;;;;;;5072433;28;20085;-80
2021/12/13 02:28:15;;;;;;;44.03;31.02;;;10.40;99.90;;;;;;5074048;28;20029;-81
2021/12/13 02:30:55;;;;;;;50.85;29.17;;;10.40;99.90;;;;;;5073669;28;20127;-80
2021/12/13 02:33:28;;;;;;;44.45;29.88;;;10.60;99.90;;;;;;5072780;28;20532;-83
2021/12/13 02:36:08;;;;;;;47.95;32.53;;;10.40;99.90;;;;;;5072584;28;20036;-79
2021/12/13 02:38:36;;;;;;;50.20;33.10;;;10.40;99.90;;;;;;5073563;28;20033;-81
2021/12/13 02:41:05;;;;;;;52.08;31.40;;;10.40;99.90;;;;;;5073470;28;20032;-81
2021/12/13 02:43:36;;;;;;;48.55;29.80;;;10.50;99.90;;;;;;5073650;28;20040;-81
2021/12/13 02:46:03;;;;;;;51.85;32.78;;;10.50;99.90;;;;;;5072353;28;20067;-81
2021/12/13 02:48:32;;;;;;;47.30;30.77;;;10.50;99.90;;;;;;5073058;28;20028;-75
2021/12/13 02:51:05;;;;;;;49.13;32.63;;;10.50;99.90;;;;;;5073470;28;20037;-80
2021/12/13 02:53:51;;;;;;;49.25;31.73;;;10.40;99.90;;;;;;5073212;28;20032;-81
2021/12/13 02:56:22;;;;;;;51.67;32.30;;;10.60;99.90;;;;;;5073525;28;20086;-77
2021/12/13 02:58:49;;;;;;;51.20;33.88;;;10.50;99.90;;;;;;5073325;28;20043;-81
2021/12/13 03:01:38;;;;;;;45.90;31.25;;;10.60;99.90;;;;;;5072537;28;20035;-80
2021/12/13 03:04:08;;;;;;;46.35;30.42;;;10.40;99.90;;;;;;5073456;28;20044;-81
2021/12/13 03:06:43;;;;;;;49.00;32.53;;;10.40;99.90;;;;;;5073098;28;20036;-79
2021/12/13 03:09:14;;;;;;;50.55;33.20;;;10.50;99.90;;;;;;5067782;28;20036;-81
2021/12/13 03:11:41;;;;;;;50.15;31.38;;;10.50;99.90;;;;;;5072861;28;20039;-81
2021/12/13 03:14:15;;;;;;;50.22;33.45;;;10.50;99.90;;;;;;5074341;28;20044;-79
2021/12/13 03:16:52;;;;;;;41.65;29.10;;;10.40;99.90;;;;;;5075085;28;20036;-80
2021/12/13 03:19:35;;;;;;;50.42;31.45;;;10.30;99.90;;;;;;5073791;28;20152;-81
2021/12/13 03:22:35;;;;;;;55.97;31.92;;;10.20;99.90;;;;;;5073702;28;20405;-80
2021/12/13 03:25:17;;;;;;;49.83;31.30;;;10.30;99.90;;;;;;5072726;28;20411;-81
2021/12/13 03:28:09;;;;;;;51.78;34.33;;;10.30;99.90;;;;;;5073415;28;20397;-81
2021/12/13 03:30:41;;;;;;;49.35;32.15;;;10.30;99.90;;;;;;5073201;28;20037;-78
2021/12/13 03:33:11;;;;;;;45.63;30.48;;;10.40;99.90;;;;;;5073115;28;20077;-80
2021/12/13 03:35:56;;;;;;;47.75;31.88;;;10.30;99.90;;;;;;5073298;28;20477;-80
2021/12/13 03:38:27;;;;;;;45.45;29.13;;;10.30;99.90;;;;;;5073482;28;20035;-81
2021/12/13 03:40:59;;;;;;;51.67;32.33;;;10.20;99.90;;;;;;5072571;28;20086;-81
2021/12/13 03:43:35;;;;;;;47.83;30.27;;;10.30;99.90;;;;;;5073018;28;20109;-80
2021/12/13 03:46:04;;;;;;;52.90;33.85;;;10.30;99.90;;;;;;5072775;28;20052;-80
2021/12/13 03:48:31;;;;;;;51.80;31.70;;;10.30;99.90;;;;;;5072781;28;20484;-80
2021/12/13 03:51:02;;;;;;;48.88;30.83;;;10.40;99.90;;;;;;5072475;28;20127;-79
2021/12/13 03:53:31;;;;;;;48.22;30.95;;;10.40;99.90;;;;;;5072748;28;20024;-80
2021/12/13 03:56:02;;;;;;;50.88;32.08;;;10.30;99.90;;;;;;5072636;28;20031;-80
2021/12/13 03:58:33;;;;;;;47.70;31.48;;;10.30;99.90;;;;;;5072634;28;20473;-80
2021/12/13 04:01:05;;;;;;;51.78;31.67;;;10.30;99.90;;;;;;5072147;28;20094;-81
2021/12/13 04:03:31;;;;;;;47.88;31.10;;;10.30;99.90;;;;;;5072769;28;20385;-80
2021/12/13 04:05:58;;;;;;;49.33;30.67;;;10.30;99.90;;;;;;5072556;28;20111;-81
2021/12/13 04:08:24;;;;;;;52.10;30.85;;;10.30;99.90;;;;;;5067545;28;20174;-81
2021/12/13 04:10:59;;;;;;;50.03;29.83;;;10.30;99.90;;;;;;5052173;28;20071;-80
2021/12/13 04:13:29;;;;;;;48.83;30.05;;;10.40;99.90;;;;;;5052693;28;20039;-80
2021/12/13 04:16:16;;;;;;;51.13;29.92;;;10.40;99.90;;;;;;5052249;28;20041;-79
2021/12/13 04:21:25;;;;;;;50.17;29.10;;;10.40;99.90;;;;;;5052322;28;20178;-80
2021/12/13 04:23:55;;;;;;;51.22;29.95;;;10.40;99.90;;;;;;5052338;28;20041;-81
2021/12/13 04:26:22;;;;;;;50.95;29.25;;;10.40;99.90;;;;;;5064776;28;20071;-80
2021/12/13 04:28:52;;;;;;;47.17;28.20;;;10.30;99.90;;;;;;5072328;28;20036;-81
2021/12/13 04:31:21;;;;;;;44.88;28.17;;;10.40;99.90;;;;;;5072074;28;20025;-79
2021/12/13 04:33:57;;;;;;;48.92;27.83;;;10.30;99.90;;;;;;5072181;28;20067;-81
2021/12/13 04:36:28;;;;;;;44.50;27.77;;;10.40;99.90;;;;;;5075496;28;20032;-81
2021/12/13 04:39:33;;;;;;;50.67;25.90;;;10.50;99.90;;;;;;5076253;28;20028;-81
2021/12/13 04:42:05;;;;;;;41.53;26.20;;;10.40;99.90;;;;;;5074538;28;20366;-81
2021/12/13 04:45:05;;;;;;;40.95;23.00;;;10.30;99.90;;;;;;5074558;28;20125;-80
2021/12/13 04:47:52;;;;;;;45.05;25.85;;;10.20;99.90;;;;;;5075648;28;20024;-80
2021/12/13 04:50:30;;;;;;;46.40;26.25;;;10.10;99.90;;;;;;5074844;28;20036;-81
2021/12/13 04:52:57;;;;;;;45.75;26.02;;;10.20;99.90;;;;;;5075669;28;20093;-81
2021/12/13 04:55:31;;;;;;;40.20;25.45;;;10.20;99.90;;;;;;5075783;28;20036;-80
2021/12/13 04:57:59;;;;;;;41.95;24.73;;;10.20;99.90;;;;;;5074285;28;20073;-81
2021/12/13 05:00:33;;;;;;;45.58;25.63;;;10.20;99.90;;;;;;5075548;28;20529;-81
2021/12/13 05:03:02;;;;;;;39.88;24.00;;;10.20;99.90;;;;;;5073912;28;20047;-81
2021/12/13 05:05:31;;;;;;;39.58;24.25;;;10.20;99.90;;;;;;5075463;28;20032;-81
2021/12/13 05:07:58;;;;;;;42.75;25.15;;;10.20;99.90;;;;;;5073937;28;20477;-81
2021/12/13 05:10:25;;;;;;;43.88;23.90;;;10.20;99.90;;;;;;5055239;28;20021;-81
2021/12/13 05:13:25;;;;;;;41.17;25.35;;;10.10;99.90;;;;;;5055170;28;20030;-81
2021/12/13 05:16:08;;;;;;;42.78;23.48;;;10.10;99.90;;;;;;5058485;28;20029;-81
2021/12/13 05:18:40;;;;;;;44.83;25.42;;;10.10;99.90;;;;;;5037074;28;20401;-81
2021/12/13 05:21:12;;;;;;;40.00;23.80;;;10.10;99.90;;;;;;5055246;28;20041;-79
2021/12/13 05:23:51;;;;;;;51.90;27.13;;;10.10;99.90;;;;;;5055081;28;20477;-80
2021/12/13 05:26:43;;;;;;;44.13;24.85;;;10.10;99.90;;;;;;5067179;28;20530;-80
2021/12/13 05:29:27;;;;;;;;;;;10.10;99.90;;;;;;5075122;28;20029;-81
2021/12/13 05:31:58;;;;;;;47.70;25.42;;;10.10;99.90;;;;;;5075088;28;19977;-81
2021/12/13 05:34:37;;;;;;;44.58;24.13;;;10.10;99.90;;;;;;5075354;28;20438;-81
2021/12/13 05:37:06;;;;;;;45.40;26.15;;;10.10;99.90;;;;;;5075019;28;20040;-81
2021/12/13 05:39:33;;;;;;;48.13;24.45;;;10.10;99.90;;;;;;5074866;28;20009;-80
2021/12/13 05:42:09;;;;;;;44.28;24.67;;;10.10;99.90;;;;;;5074897;28;20037;-80
2021/12/13 05:44:44;;;;;;;47.92;25.75;;;10.10;99.90;;;;;;5074942;28;20032;-80
2021/12/13 05:47:26;;;;;;;45.72;26.02;;;10.00;99.90;;;;;;5074293;28;20380;-80
2021/12/13 05:49:53;;;;;;;47.08;26.77;;;10.10;99.90;;;;;;5074241;28;20039;-80
2021/12/13 05:52:29;;;;;;;42.55;25.90;;;10.20;99.90;;;;;;5074738;28;20024;-79
2021/12/13 05:55:01;;;;;;;47.63;27.25;;;10.20;99.90;;;;;;5074346;28;20028;-80
2021/12/13 05:57:29;;;;;;;51.17;26.85;;;10.10;99.90;;;;;;5074480;28;20056;-81
2021/12/13 06:00:16;;;;;;;47.50;27.08;;;10.10;99.90;;;;;;5074407;28;20536;-79
2021/12/13 06:03:16;;;;;;;47.55;25.65;;;10.10;99.90;;;;;;5074395;28;20044;-80
2021/12/13 06:05:52;;;;;;;52.38;28.20;;;10.10;99.90;;;;;;5074316;28;20036;-80
2021/12/13 06:08:26;;;;;;;45.47;26.70;;;10.20;99.90;;;;;;5069934;28;20120;-80
2021/12/13 06:11:01;;;;;;;45.28;26.23;;;10.20;99.90;;;;;;5052969;28;20028;-80
2021/12/13 06:13:48;;;;;;;40.65;24.30;;;10.10;99.90;;;;;;5053897;28;20079;-80
2021/12/13 06:16:41;;;;;;;39.47;24.30;;;10.10;99.90;;;;;;5054338;28;20047;-81
2021/12/13 06:19:13;;;;;;;46.65;26.73;;;10.10;99.90;;;;;;5052028;28;20060;-80
2021/12/13 06:21:55;;;;;;;43.88;24.90;;;10.10;99.90;;;;;;5053957;28;20124;-80
2021/12/13 06:24:35;;;;;;;43.53;25.17;;;10.10;99.90;;;;;;5053884;28;20427;-80
2021/12/13 06:27:29;;;;;;;46.60;25.88;;;10.10;99.90;;;;;;5071731;28;20028;-80
2021/12/13 06:30:34;;;;;;;50.40;25.20;;;10.00;99.90;;;;;;5072478;28;20032;-81
2021/12/13 06:33:12;;;;;;;54.58;26.55;;;10.00;99.90;;;;;;5072727;28;20075;-80
2021/12/13 06:35:37;;;;;;;57.75;27.63;;;10.00;99.90;;;;;;5073481;28;20515;-80
2021/12/13 06:38:34;;;;;;;47.38;24.40;;;10.10;99.90;;;;;;5073688;28;20024;-80
2021/12/13 06:41:17;;;;;;;43.22;22.85;;;10.20;99.90;;;;;;5071948;28;20047;-81
2021/12/13 06:44:00;;;;;;;36.80;21.48;;;10.10;99.90;;;;;;5073585;28;20033;-80
2021/12/13 06:46:25;;;;;;;40.10;22.70;;;10.00;99.90;;;;;;5072501;28;20469;-79
2021/12/13 06:49:03;;;;;;;39.50;22.98;;;10.10;99.90;;;;;;5073280;28;20032;-80
2021/12/13 06:52:18;;;;;;;41.15;22.45;;;10.10;99.90;;;;;;5073102;28;20119;-80
2021/12/13 06:54:49;;;;;;;34.20;21.58;;;10.10;99.90;;;;;;5070923;28;20041;-80
2021/12/13 06:57:38;;;;;;;37.53;21.73;;;10.10;99.90;;;;;;5071534;28;20136;-80
2021/12/13 07:00:13;;;;;;;38.50;20.40;;;10.20;99.90;;;;;;5072009;28;20392;-80
2021/12/13 07:02:50;;;;;;;36.50;21.92;;;10.10;99.90;;;;;;5073168;28;20050;-79
2021/12/13 07:05:20;;;;;;;31.63;20.67;;;10.00;99.90;;;;;;5073262;28;20042;-80
2021/12/13 07:08:04;;;;;;;35.15;21.05;;;10.10;99.90;;;;;;5073163;28;20033;-80
2021/12/13 07:10:33;;;;;;;38.45;19.75;;;10.20;99.90;;;;;;5068199;28;20058;-80
2021/12/13 07:13:03;;;;;;;34.35;20.60;;;10.20;99.90;;;;;;5052981;28;20017;-82
2021/12/13 07:15:45;;;;;;;34.50;19.83;;;10.10;99.90;;;;;;5053087;28;20051;-80
2021/12/13 07:18:13;;;;;;;38.92;20.02;;;10.20;99.90;;;;;;5053266;28;20037;-80
2021/12/13 07:20:44;;;;;;;31.50;20.40;;;10.20;99.90;;;;;;5052770;28;20496;-80
2021/12/13 07:23:10;;;;;;;34.92;19.17;;;10.20;99.90;;;;;;5052949;28;20432;-79
2021/12/13 07:25:39;;;;;;;34.38;18.73;;;10.10;99.90;;;;;;5058880;28;20107;-79
2021/12/13 07:28:07;;;;;;;29.30;17.88;;;10.10;99.90;;;;;;5070381;28;20082;-80
2021/12/13 07:30:35;;;;;;;36.25;18.73;;;10.10;99.90;;;;;;5071464;28;20111;-80
2021/12/13 07:33:05;;;;;;;29.67;19.45;;;10.10;99.90;;;;;;5072781;28;20438;-80
2021/12/13 07:35:37;;;;;;;29.23;18.65;;;10.10;99.90;;;;;;5071721;28;20130;-80
2021/12/13 07:38:17;;;;;;;30.67;18.02;;;10.00;99.90;;;;;;5072276;28;20035;-79
2021/12/13 07:40:47;;;;;;;29.35;18.80;;;10.10;99.90;;;;;;5072311;28;20378;-77
2021/12/13 07:43:21;;;;;;;31.23;18.02;;;10.10;99.90;;;;;;5058139;28;20121;-78
2021/12/13 07:46:11;;;;;;;30.42;18.23;;;10.10;99.90;;;;;;5052379;28;20041;-78
2021/12/13 07:48:54;;;;;;;29.20;17.58;;;10.10;99.90;;;;;;5052126;28;20049;-79
2021/12/13 07:51:28;;;;;;;30.17;17.85;;;10.20;99.90;;;;;;5052429;28;20032;-78
2021/12/13 07:53:59;;;;;;;27.52;16.55;;;10.20;99.90;;;;;;5051059;28;20040;-77
2021/12/13 07:56:37;;;;;;;28.90;17.07;;;10.20;99.90;;;;;;5052045;28;20021;-79
2021/12/13 07:59:11;;;;;;;27.10;16.65;;;10.10;99.90;;;;;;5051824;28;20496;-79
2021/12/13 08:02:10;;;;;;;28.45;16.02;;;10.00;99.90;;;;;;5051346;28;20444;-79
2021/12/13 08:04:35;;;;;;;28.25;16.58;;;10.00;99.90;;;;;;5071747;28;20032;-79
2021/12/13 08:07:17;;;;;;;27.17;16.73;;;10.10;99.90;;;;;;5072385;28;20020;-79
2021/12/13 08:10:09;;;;;;;32.03;16.85;;;10.10;99.90;;;;;;5055100;28;20029;-79
2021/12/13 08:12:41;;;;;;;32.83;17.40;;;10.10;99.90;;;;;;5055262;28;20465;-78
2021/12/13 08:15:21;;;;;;;30.20;17.35;;;10.10;99.90;;;;;;5056427;28;20139;-76
2021/12/13 08:17:53;;;;;;;28.92;16.67;;;10.20;99.90;;;;;;5056158;28;20469;-79
2021/12/13 08:20:45;;;;;;;28.80;15.90;;;10.20;99.90;;;;;;5055916;28;20424;-76
2021/12/13 08:23:18;;;;;;;34.92;16.63;;;10.30;99.90;;;;;;5053794;28;20088;-80
2021/12/13 08:25:48;;;;;;;33.20;17.27;;;10.20;99.90;;;;;;5063336;28;20068;-79
2021/12/13 08:28:17;;;;;;;36.65;17.17;;;10.10;99.90;;;;;;5075589;28;20418;-72
2021/12/13 08:30:53;;;;;;;31.20;16.63;;;10.20;99.90;;;;;;5069717;28;20021;-76
2021/12/13 08:33:45;;;;;;;34.25;17.00;;;10.20;99.90;;;;;;5055204;28;20053;-78
2021/12/13 08:36:16;;;;;;;30.13;16.40;;;10.20;99.90;;;;;;5072703;28;20056;-76
2021/12/13 08:39:07;;;;;;;33.60;17.23;;;10.00;99.90;;;;;;5055279;28;20032;-73
2021/12/13 08:41:56;;;;;;;36.70;16.02;;;10.00;99.90;;;;;;5057982;28;20056;-77
2021/12/13 08:44:29;;;;;;;28.75;15.93;;;10.20;99.90;;;;;;5071084;28;20056;-76
2021/12/13 08:47:03;;;;;;;29.58;14.80;;;10.20;99.90;;;;;;5073886;28;20070;-75
2021/12/13 08:49:44;;;;;;;32.33;16.30;;;10.10;99.90;;;;;;5054931;28;20029;-79
2021/12/13 08:52:30;;;;;;;25.98;14.43;;;10.20;99.90;;;;;;5054791;28;20497;-78
2021/12/13 08:54:56;;;;;;;30.33;16.23;;;10.10;99.90;;;;;;5063201;28;20048;-79
2021/12/13 08:57:39;;;;;;;26.95;14.45;;;10.20;99.90;;;;;;5053741;28;20025;-79
2021/12/13 09:00:19;;;;;;;28.77;14.63;;;10.10;99.90;;;;;;5054757;28;20029;-79
2021/12/13 09:02:48;;;;;;;28.75;15.52;;;10.10;99.90;;;;;;5072594;28;20129;-79
2021/12/13 09:05:22;;;;;;;28.20;15.10;;;10.10;99.90;;;;;;5074889;28;20051;-78
2021/12/13 09:08:10;;;;;;;28.50;15.40;;;10.20;99.90;;;;;;5067686;28;20068;-78
2021/12/13 09:10:51;;;;;;;32.67;15.52;;;10.10;99.90;;;;;;5064569;28;20024;-79
2021/12/13 09:13:31;;;;;;;26.50;15.43;;;10.10;99.90;;;;;;5071498;28;20025;-78
2021/12/13 09:15:59;;;;;;;28.73;15.18;;;10.20;99.90;;;;;;5074616;28;20029;-79
2021/12/13 09:18:26;;;;;;;30.75;15.63;;;10.10;99.90;;;;;;5074187;28;20040;-79
2021/12/13 09:20:54;;;;;;;31.08;16.88;;;10.10;99.90;;;;;;5064782;28;20041;-79
2021/12/13 09:23:30;;;;;;;28.15;15.00;;;10.20;99.90;;;;;;5054239;28;20175;-78
2021/12/13 09:26:14;;;;;;;33.47;15.55;;;10.00;99.90;;;;;;5063613;28;20487;-77
2021/12/13 09:28:57;;;;;;;30.15;17.05;;;10.00;99.90;;;;;;5074502;28;20021;-76
2021/12/13 09:31:28;;;;;;;35.72;16.20;;;10.00;99.90;;;;;;5069792;28;20028;-77
2021/12/13 09:33:58;;;;;;;31.63;15.25;;;10.10;99.90;;;;;;5053813;28;20374;-79
2021/12/13 09:36:31;;;;;;;28.27;15.40;;;10.10;99.90;;;;;;5063974;28;20035;-77
2021/12/13 09:39:18;;;;;;;26.73;14.50;;;10.10;99.90;;;;;;5053749;28;20037;-79
2021/12/13 09:41:53;;;;;;;27.80;15.02;;;10.10;99.90;;;;;;5071393;28;20017;-77
2021/12/13 09:44:30;;;;;;;28.33;15.23;;;10.20;99.90;;;;;;5047449;28;20060;-79
2021/12/13 09:46:55;;;;;;;26.20;15.27;;;10.20;99.90;;;;;;5054207;28;20052;-79
2021/12/13 09:49:24;;;;;;;22.95;14.43;;;10.30;99.90;;;;;;5054209;28;20493;-78
2021/12/13 09:52:19;;;;;;;27.15;14.60;;;10.30;99.90;;;;;;5054464;28;20029;-79
2021/12/13 09:55:23;;;;;;;27.35;14.38;;;10.40;99.90;;;;;;5053899;28;20457;-78
2021/12/13 09:58:04;;;;;;;24.58;14.10;;;10.30;99.90;;;;;;5054573;28;20041;-77
2021/12/13 10:00:41;;;;;;;22.95;12.98;;;10.40;99.90;;;;;;5061351;28;20493;-79
2021/12/13 10:03:18;;;;;;;26.27;12.98;;;10.50;99.90;;;;;;5053257;28;20045;-79
2021/12/13 10:05:46;;;;;;;24.10;14.27;;;10.30;99.90;;;;;;5053532;28;20090;-79
2021/12/13 10:08:24;;;;;;;27.50;13.57;;;10.20;99.90;;;;;;5057265;28;20457;-79
2021/12/13 10:10:55;;;;;;;24.40;12.45;;;10.30;99.90;;;;;;5073905;28;20484;-76
2021/12/13 10:13:26;;;;;;;26.97;12.93;;;10.30;99.90;;;;;;5072544;28;20080;-79
2021/12/13 10:15:56;;;;;;;22.67;13.10;;;10.30;99.90;;;;;;5072758;28;20028;-79
2021/12/13 10:18:27;;;;;;;25.92;14.15;;;10.30;99.90;;;;;;5073421;28;20097;-79
2021/12/13 10:20:58;;;;;;;21.05;12.55;;;10.30;99.90;;;;;;5073334;28;20041;-79
2021/12/13 10:23:29;;;;;;;25.45;14.18;;;10.40;99.90;;;;;;5073778;28;20037;-79
2021/12/13 10:26:01;;;;;;;27.73;14.52;;;10.40;99.90;;;;;;5073327;28;20090;-79
2021/12/13 10:28:30;;;;;;;26.70;13.18;;;10.50;99.90;;;;;;5073384;28;20031;-79
2021/12/13 10:31:07;;;;;;;21.42;13.05;;;10.60;99.90;;;;;;5073416;28;20065;-79
2021/12/13 10:33:34;;;;;;;18.23;11.48;;;10.50;99.90;;;;;;5069492;28;20385;-79
2021/12/13 10:36:02;;;;;;;21.25;11.90;;;10.30;99.90;;;;;;5060321;28;20029;-79
2021/12/13 10:38:39;;;;;;;24.45;12.30;;;10.50;99.90;;;;;;5052944;28;20111;-79
2021/12/13 10:41:08;;;;;;;21.88;12.85;;;10.40;99.90;;;;;;5052603;28;20510;-79
2021/12/13 10:43:47;;;;;;;19.90;10.90;;;10.40;99.90;;;;;;5052055;28;20423;-79
2021/12/13 10:46:21;;;;;;;18.75;11.25;;;10.50;99.90;;;;;;5053100;28;20110;-79
2021/12/13 10:48:51;;;;;;;18.58;10.57;;;10.50;99.90;;;;;;5053109;28;20408;-79
2021/12/13 10:51:22;;;;;;;16.70;10.85;;;10.50;99.90;;;;;;5053169;28;20040;-77
2021/12/13 10:53:49;;;;;;;17.10;10.90;;;10.50;99.90;;;;;;5053278;28;20037;-79
2021/12/13 10:56:29;;;;;;;20.40;11.30;;;10.50;99.90;;;;;;5051887;28;20056;-78
2021/12/13 10:58:59;;;;;;;19.83;10.93;;;10.40;99.90;;;;;;5063865;28;20032;-79
2021/12/13 11:01:56;;;;;;;20.92;10.90;;;10.40;99.90;;;;;;5073032;28;20055;-78
2021/12/13 11:04:33;;;;;;;21.90;10.57;;;10.40;99.90;;;;;;5072442;28;20469;-79
2021/12/13 11:07:01;;;;;;;23.42;10.52;;;10.50;99.90;;;;;;5072958;28;20040;-79
2021/12/13 11:09:27;;;;;;;22.50;12.52;;;10.50;99.90;;;;;;5059028;28;20083;-79
2021/12/13 11:12:03;;;;;;;19.58;11.68;;;10.50;99.90;;;;;;5052933;28;20094;-79
2021/12/13 11:14:32;;;;;;;16.88;10.30;;;10.50;99.90;;;;;;5052924;28;20497;-80
2021/12/13 11:17:03;;;;;;;20.95;10.40;;;10.60;99.90;;;;;;5052569;28;20036;-77
2021/12/13 11:19:32;;;;;;;19.15;10.70;;;10.60;99.90;;;;;;5052473;28;20041;-79
2021/12/13 11:22:04;;;;;;;16.58;10.57;;;10.60;99.90;;;;;;5051452;28;20053;-79
2021/12/13 11:24:33;;;;;;;17.25;10.52;;;10.70;99.90;;;;;;5052320;28;20466;-78
2021/12/13 11:27:04;;;;;;;18.20;9.98;;;10.60;99.90;;;;;;5070465;28;20036;-79
2021/12/13 11:29:32;;;;;;;16.10;9.95;;;10.60;99.90;;;;;;5071209;28;20064;-79
2021/12/13 11:32:39;;;;;;;21.25;10.68;;;10.70;99.90;;;;;;5072186;28;20108;-79
2021/12/13 11:35:08;;;;;;;17.73;9.82;;;10.60;99.90;;;;;;5052270;28;20032;-81
2021/12/13 11:37:46;;;;;;;17.20;9.68;;;10.70;99.90;;;;;;5052614;28;20094;-77
2021/12/13 11:40:53;;;;;;;18.00;10.98;;;10.60;99.90;;;;;;5052458;28;20037;-76
2021/12/13 11:43:56;;;;;;;14.80;9.75;;;10.60;99.90;;;;;;5051122;28;20045;-76
2021/12/13 11:46:45;;;;;;;20.52;10.18;;;10.50;99.90;;;;;;5051770;28;20126;-77
2021/12/13 11:49:37;;;;;;;15.38;9.55;;;10.50;99.90;;;;;;5051311;28;20389;-80
2021/12/13 11:52:22;;;;;;;14.85;9.68;;;10.50;99.90;;;;;;5052294;28;20033;-77
2021/12/13 11:55:25;;;;;;;20.13;10.57;;;10.50;99.90;;;;;;5052222;28;20068;-79
2021/12/13 11:58:16;;;;;;;16.85;9.95;;;10.60;99.90;;;;;;5052504;28;20488;-79
2021/12/13 12:01:21;;;;;;;17.15;9.48;;;10.60;99.90;;;;;;5052583;28;20025;-77
2021/12/13 12:04:05;;;;;;;17.50;9.07;;;10.50;99.90;;;;;;5052672;28;20374;-74
2021/12/13 12:06:58;;;;;;;20.40;10.57;;;10.50;99.90;;;;;;5051191;28;20025;-76
2021/12/13 12:09:45;;;;;;;15.77;9.10;;;10.50;99.90;;;;;;5064522;28;20032;-75
2021/12/13 12:12:31;;;;;;;15.13;9.52;;;10.50;99.90;;;;;;5072414;28;20024;-76
2021/12/13 12:15:01;;;;;;;18.55;9.82;;;10.60;99.90;;;;;;5070256;28;20033;-73
2021/12/13 12:17:29;;;;;;;16.83;9.85;;;10.60;99.90;;;;;;5052393;28;20029;-77
2021/12/13 12:19:56;;;;;;;15.15;10.23;;;10.60;99.90;;;;;;5051049;28;20025;-78
2021/12/13 12:22:22;;;;;;;23.85;10.68;;;10.70;99.90;;;;;;5052216;28;20064;-79
2021/12/13 12:24:58;;;;;;;15.38;9.63;;;10.70;99.90;;;;;;5052283;28;20477;-76
2021/12/13 12:27:30;;;;;;;17.85;9.18;;;10.60;99.90;;;;;;5052329;28;20037;-78
2021/12/13 12:30:16;;;;;;;14.45;9.23;;;10.60;99.90;;;;;;5050862;28;20033;-75
2021/12/13 12:32:48;;;;;;;17.23;9.07;;;10.60;99.90;;;;;;5050908;28;20078;-79
2021/12/13 12:35:14;;;;;;;14.63;9.38;;;10.50;99.90;;;;;;5051040;28;20532;-76
2021/12/13 12:38:02;;;;;;;16.45;9.18;;;10.60;99.90;;;;;;5052322;28;20037;-79
2021/12/13 12:41:07;;;;;;;17.60;9.00;;;10.60;99.90;;;;;;5034324;28;20478;-79
2021/12/13 12:43:41;;;;;;;16.05;10.07;;;10.60;99.90;;;;;;5051433;28;20060;-76
2021/12/13 12:46:13;;;;;;;15.75;9.10;;;10.40;99.90;;;;;;5052389;28;20519;-76
2021/12/13 12:48:57;;;;;;;;;;;10.50;99.90;;;;;;5052227;28;20033;-79
2021/12/13 12:51:26;;;;;;;14.98;9.82;;;10.50;99.90;;;;;;5034666;28;19913;-77
2021/12/13 12:53:59;;;;;;;14.25;9.25;;;10.60;99.90;;;;;;5051920;28;20029;-79
2021/12/13 12:56:40;;;;;;;16.02;9.40;;;10.50;99.90;;;;;;5052654;28;20025;-78
2021/12/13 12:59:32;;;;;;;15.63;9.32;;;10.50;99.90;;;;;;5055462;28;20064;-79
2021/12/13 13:02:04;;;;;;;17.65;9.18;;;10.50;99.90;;;;;;5055817;28;20041;-79
2021/12/13 13:04:42;;;;;;;18.67;9.13;;;10.40;99.90;;;;;;5055546;28;20554;-79
2021/12/13 13:07:31;;;;;;;16.02;9.38;;;10.50;99.90;;;;;;5054263;28;20029;-79
2021/12/13 13:12:59;;;;;;;12.75;9.25;;;10.50;99.90;;;;;;5074865;28;20024;-79
2021/12/13 13:15:29;;;;;;;18.77;9.20;;;10.50;99.90;;;;;;5075430;28;20090;-79
2021/12/13 13:18:17;;;;;;;13.75;9.25;;;10.60;99.90;;;;;;5075353;28;20029;-77
2021/12/13 13:20:54;;;;;;;16.13;9.68;;;10.60;99.90;;;;;;5073898;28;20423;-79
2021/12/13 13:23:23;;;;;;;12.80;8.32;;;10.60;99.90;;;;;;5075109;28;20059;-79